sensor_id;sensor_type;location;lat;lon;timestamp;P1;durP1;ratioP1;P2;durP2;ratioP2
56181;SDS011;51963;46.052;14.544;2024-01-15T00:02:15;37.65;;;17.92;;
56181;SDS011;51963;46.052;14.544;2024-01-15T00:04:41;37.70;;;18.05;;
56181;SDS011;51963;46.052;14.544;2024-01-15T00:07:07;38.35;;;16.85;;
56181;SDS011;51963;46.052;14.544;2024-01-15T00:09:34;34.45;;;16.10;;
56181;SDS011;51963;46.052;14.544;2024-01-15T00:12:01;33.90;;;16.63;;
56181;SDS011;51963;46.052;14.544;2024-01-15T00:14:27;34.83;;;15.60;;
56181;SDS011;51963;46.052;14.544;2024-01-15T00:16:53;38.45;;;17.52;;
56181;SDS011;51963;46.052;14.544;2024-01-15T00:19:23;30.83;;;15.52;;
56181;SDS011;51963;46.052;14.544;2024-01-15T00:21:49;34.75;;;15.15;;
56181;SDS011;51963;46.052;14.544;2024-01-15T00:24:15;28.33;;;15.30;;
56181;SDS011;51963;46.052;14.544;2024-01-15T00:26:41;35.22;;;15.93;;
56181;SDS011;51963;46.052;14.544;2024-01-15T00:29:08;36.03;;;16.38;;
56181;SDS011;51963;46.052;14.544;2024-01-15T00:31:34;36.08;;;16.33;;
56181;SDS011;51963;46.052;14.544;2024-01-15T00:33:59;35.65;;;16.20;;
56181;SDS011;51963;46.052;14.544;2024-01-15T00:36:25;32.20;;;15.63;;
56181;SDS011;51963;46.052;14.544;2024-01-15T00:38:51;32.45;;;15.48;;
56181;SDS011;51963;46.052;14.544;2024-01-15T00:41:18;34.30;;;15.38;;
56181;SDS011;51963;46.052;14.544;2024-01-15T00:43:44;33.30;;;16.67;;
56181;SDS011;51963;46.052;14.544;2024-01-15T00:46:10;32.58;;;16.33;;
56181;SDS011;51963;46.052;14.544;2024-01-15T00:48:36;33.65;;;16.60;;
56181;SDS011;51963;46.052;14.544;2024-01-15T00:51:03;34.10;;;15.50;;
56181;SDS011;51963;46.052;14.544;2024-01-15T00:53:30;36.45;;;16.98;;
56181;SDS011;51963;46.052;14.544;2024-01-15T00:55:56;33.75;;;16.40;;
56181;SDS011;51963;46.052;14.544;2024-01-15T00:58:22;35.17;;;16.25;;
56181;SDS011;51963;46.052;14.544;2024-01-15T01:00:47;32.58;;;15.77;;
56181;SDS011;51963;46.052;14.544;2024-01-15T01:03:13;36.55;;;15.98;;
56181;SDS011;51963;46.052;14.544;2024-01-15T01:05:39;38.58;;;17.52;;
56181;SDS011;51963;46.052;14.544;2024-01-15T01:08:04;29.80;;;14.75;;
56181;SDS011;51963;46.052;14.544;2024-01-15T01:10:30;34.42;;;15.25;;
56181;SDS011;51963;46.052;14.544;2024-01-15T01:12:56;33.00;;;16.13;;
56181;SDS011;51963;46.052;14.544;2024-01-15T01:15:21;51.17;;;20.95;;
56181;SDS011;51963;46.052;14.544;2024-01-15T01:17:47;31.58;;;16.63;;
56181;SDS011;51963;46.052;14.544;2024-01-15T01:20:13;36.15;;;16.38;;
56181;SDS011;51963;46.052;14.544;2024-01-15T01:22:40;35.50;;;15.40;;
56181;SDS011;51963;46.052;14.544;2024-01-15T01:25:06;33.45;;;15.50;;
56181;SDS011;51963;46.052;14.544;2024-01-15T01:27:32;36.63;;;15.85;;
56181;SDS011;51963;46.052;14.544;2024-01-15T01:29:58;36.10;;;15.88;;
56181;SDS011;51963;46.052;14.544;2024-01-15T01:32:24;30.23;;;14.63;;
56181;SDS011;51963;46.052;14.544;2024-01-15T01:34:49;34.35;;;14.80;;
56181;SDS011;51963;46.052;14.544;2024-01-15T01:37:15;30.27;;;13.95;;
56181;SDS011;51963;46.052;14.544;2024-01-15T01:39:41;30.20;;;14.77;;
56181;SDS011;51963;46.052;14.544;2024-01-15T01:42:07;28.52;;;13.35;;
56181;SDS011;51963;46.052;14.544;2024-01-15T01:44:33;33.28;;;14.80;;
56181;SDS011;51963;46.052;14.544;2024-01-15T01:46:59;35.33;;;16.95;;
56181;SDS011;51963;46.052;14.544;2024-01-15T01:49:28;34.60;;;16.15;;
56181;SDS011;51963;46.052;14.544;2024-01-15T01:51:58;34.05;;;15.40;;
56181;SDS011;51963;46.052;14.544;2024-01-15T01:54:26;34.88;;;15.80;;
56181;SDS011;51963;46.052;14.544;2024-01-15T01:56:54;30.65;;;14.55;;
56181;SDS011;51963;46.052;14.544;2024-01-15T01:59:20;31.50;;;15.48;;
56181;SDS011;51963;46.052;14.544;2024-01-15T02:01:48;34.00;;;15.45;;
56181;SDS011;51963;46.052;14.544;2024-01-15T02:04:15;31.17;;;13.43;;
56181;SDS011;51963;46.052;14.544;2024-01-15T02:06:41;30.08;;;14.00;;
56181;SDS011;51963;46.052;14.544;2024-01-15T02:09:07;29.50;;;14.73;;
56181;SDS011;51963;46.052;14.544;2024-01-15T02:11:34;33.35;;;14.82;;
56181;SDS011;51963;46.052;14.544;2024-01-15T02:13:59;29.45;;;14.55;;
56181;SDS011;51963;46.052;14.544;2024-01-15T02:16:26;34.95;;;16.05;;
56181;SDS011;51963;46.052;14.544;2024-01-15T02:18:52;30.88;;;14.27;;
56181;SDS011;51963;46.052;14.544;2024-01-15T02:21:17;24.25;;;11.77;;
56181;SDS011;51963;46.052;14.544;2024-01-15T02:23:43;22.90;;;11.05;;
56181;SDS011;51963;46.052;14.544;2024-01-15T02:26:09;21.83;;;9.85;;
56181;SDS011;51963;46.052;14.544;2024-01-15T02:28:34;18.15;;;9.38;;
56181;SDS011;51963;46.052;14.544;2024-01-15T02:31:00;21.70;;;10.00;;
56181;SDS011;51963;46.052;14.544;2024-01-15T02:33:26;25.92;;;11.45;;
56181;SDS011;51963;46.052;14.544;2024-01-15T02:35:52;24.30;;;11.20;;
56181;SDS011;51963;46.052;14.544;2024-01-15T02:38:17;24.52;;;11.70;;
56181;SDS011;51963;46.052;14.544;2024-01-15T02:40:44;26.80;;;12.35;;
56181;SDS011;51963;46.052;14.544;2024-01-15T02:43:10;23.88;;;10.95;;
56181;SDS011;51963;46.052;14.544;2024-01-15T02:45:36;24.60;;;11.98;;
56181;SDS011;51963;46.052;14.544;2024-01-15T02:48:02;24.98;;;11.68;;
56181;SDS011;51963;46.052;14.544;2024-01-15T02:50:27;20.63;;;11.13;;
56181;SDS011;51963;46.052;14.544;2024-01-15T02:52:53;22.42;;;10.88;;
56181;SDS011;51963;46.052;14.544;2024-01-15T02:55:19;23.58;;;11.82;;
56181;SDS011;51963;46.052;14.544;2024-01-15T02:57:44;26.52;;;11.15;;
56181;SDS011;51963;46.052;14.544;2024-01-15T03:00:10;23.83;;;11.15;;
56181;SDS011;51963;46.052;14.544;2024-01-15T03:02:37;26.48;;;12.20;;
56181;SDS011;51963;46.052;14.544;2024-01-15T03:05:08;24.17;;;11.13;;
56181;SDS011;51963;46.052;14.544;2024-01-15T03:07:37;26.00;;;11.60;;
56181;SDS011;51963;46.052;14.544;2024-01-15T03:10:04;26.75;;;11.38;;
56181;SDS011;51963;46.052;14.544;2024-01-15T03:12:30;27.58;;;11.50;;
56181;SDS011;51963;46.052;14.544;2024-01-15T03:14:57;25.23;;;11.30;;
56181;SDS011;51963;46.052;14.544;2024-01-15T03:17:22;24.38;;;11.32;;
56181;SDS011;51963;46.052;14.544;2024-01-15T03:19:48;22.55;;;10.95;;
56181;SDS011;51963;46.052;14.544;2024-01-15T03:22:15;23.05;;;10.98;;
56181;SDS011;51963;46.052;14.544;2024-01-15T03:24:41;23.17;;;11.32;;
56181;SDS011;51963;46.052;14.544;2024-01-15T03:27:07;24.25;;;10.90;;
56181;SDS011;51963;46.052;14.544;2024-01-15T03:29:33;19.55;;;10.13;;
56181;SDS011;51963;46.052;14.544;2024-01-15T03:31:58;26.45;;;12.18;;
56181;SDS011;51963;46.052;14.544;2024-01-15T03:34:24;22.73;;;11.50;;
56181;SDS011;51963;46.052;14.544;2024-01-15T03:36:50;23.92;;;10.93;;
56181;SDS011;51963;46.052;14.544;2024-01-15T03:39:15;24.10;;;11.60;;
56181;SDS011;51963;46.052;14.544;2024-01-15T03:41:41;21.95;;;9.93;;
56181;SDS011;51963;46.052;14.544;2024-01-15T03:44:07;19.65;;;9.30;;
56181;SDS011;51963;46.052;14.544;2024-01-15T03:46:32;20.38;;;10.23;;
56181;SDS011;51963;46.052;14.544;2024-01-15T03:48:58;25.50;;;10.57;;
56181;SDS011;51963;46.052;14.544;2024-01-15T03:51:24;24.42;;;11.38;;
56181;SDS011;51963;46.052;14.544;2024-01-15T03:53:50;23.67;;;10.70;;
56181;SDS011;51963;46.052;14.544;2024-01-15T03:56:15;19.13;;;9.18;;
56181;SDS011;51963;46.052;14.544;2024-01-15T03:58:41;20.55;;;10.18;;
56181;SDS011;51963;46.052;14.544;2024-01-15T04:01:10;20.30;;;10.10;;
56181;SDS011;51963;46.052;14.544;2024-01-15T04:03:36;21.27;;;10.30;;
56181;SDS011;51963;46.052;14.544;2024-01-15T04:06:02;20.20;;;10.40;;
56181;SDS011;51963;46.052;14.544;2024-01-15T04:08:28;21.70;;;11.05;;
56181;SDS011;51963;46.052;14.544;2024-01-15T04:10:54;19.60;;;9.90;;
56181;SDS011;51963;46.052;14.544;2024-01-15T04:13:20;20.70;;;9.27;;
56181;SDS011;51963;46.052;14.544;2024-01-15T04:15:46;23.52;;;11.20;;
56181;SDS011;51963;46.052;14.544;2024-01-15T04:18:12;22.25;;;10.30;;
56181;SDS011;51963;46.052;14.544;2024-01-15T04:20:37;23.40;;;10.70;;
56181;SDS011;51963;46.052;14.544;2024-01-15T04:23:04;23.50;;;11.30;;
56181;SDS011;51963;46.052;14.544;2024-01-15T04:25:30;23.90;;;11.27;;
56181;SDS011;51963;46.052;14.544;2024-01-15T04:27:55;26.00;;;11.35;;
56181;SDS011;51963;46.052;14.544;2024-01-15T04:30:21;23.85;;;11.02;;
56181;SDS011;51963;46.052;14.544;2024-01-15T04:32:47;26.42;;;12.52;;
56181;SDS011;51963;46.052;14.544;2024-01-15T04:35:12;24.30;;;10.82;;
56181;SDS011;51963;46.052;14.544;2024-01-15T04:37:39;22.70;;;10.68;;
56181;SDS011;51963;46.052;14.544;2024-01-15T04:40:05;23.98;;;11.30;;
56181;SDS011;51963;46.052;14.544;2024-01-15T04:42:32;23.50;;;11.45;;
56181;SDS011;51963;46.052;14.544;2024-01-15T04:44:57;22.20;;;11.35;;
56181;SDS011;51963;46.052;14.544;2024-01-15T04:47:23;24.55;;;10.88;;
56181;SDS011;51963;46.052;14.544;2024-01-15T04:49:49;23.70;;;11.23;;
56181;SDS011;51963;46.052;14.544;2024-01-15T04:52:15;21.95;;;10.43;;
56181;SDS011;51963;46.052;14.544;2024-01-15T04:54:40;27.20;;;10.85;;
56181;SDS011;51963;46.052;14.544;2024-01-15T04:57:06;26.92;;;11.57;;
56181;SDS011;51963;46.052;14.544;2024-01-15T04:59:32;21.70;;;10.07;;
56181;SDS011;51963;46.052;14.544;2024-01-15T05:01:57;25.63;;;10.43;;
56181;SDS011;51963;46.052;14.544;2024-01-15T05:04:23;22.67;;;9.52;;
56181;SDS011;51963;46.052;14.544;2024-01-15T05:06:50;22.00;;;10.35;;
56181;SDS011;51963;46.052;14.544;2024-01-15T05:09:16;19.70;;;9.52;;
56181;SDS011;51963;46.052;14.544;2024-01-15T05:11:43;21.10;;;10.32;;
56181;SDS011;51963;46.052;14.544;2024-01-15T05:14:09;21.63;;;10.40;;
56181;SDS011;51963;46.052;14.544;2024-01-15T05:16:35;23.15;;;10.15;;
56181;SDS011;51963;46.052;14.544;2024-01-15T05:19:03;29.67;;;12.38;;
56181;SDS011;51963;46.052;14.544;2024-01-15T05:21:29;23.67;;;11.02;;
56181;SDS011;51963;46.052;14.544;2024-01-15T05:23:54;31.73;;;13.07;;
56181;SDS011;51963;46.052;14.544;2024-01-15T05:26:20;23.88;;;11.68;;
56181;SDS011;51963;46.052;14.544;2024-01-15T05:28:46;27.25;;;14.23;;
56181;SDS011;51963;46.052;14.544;2024-01-15T05:31:11;32.28;;;15.35;;
56181;SDS011;51963;46.052;14.544;2024-01-15T05:33:37;34.38;;;15.07;;
56181;SDS011;51963;46.052;14.544;2024-01-15T05:36:04;30.52;;;14.65;;
56181;SDS011;51963;46.052;14.544;2024-01-15T05:38:30;45.83;;;15.90;;
56181;SDS011;51963;46.052;14.544;2024-01-15T05:40:55;31.55;;;14.27;;
56181;SDS011;51963;46.052;14.544;2024-01-15T05:43:21;34.53;;;15.05;;
56181;SDS011;51963;46.052;14.544;2024-01-15T05:45:47;34.05;;;14.85;;
56181;SDS011;51963;46.052;14.544;2024-01-15T05:48:12;32.20;;;14.18;;
56181;SDS011;51963;46.052;14.544;2024-01-15T05:50:38;29.23;;;13.75;;
56181;SDS011;51963;46.052;14.544;2024-01-15T05:53:04;36.80;;;14.20;;
56181;SDS011;51963;46.052;14.544;2024-01-15T05:55:30;27.80;;;13.38;;
56181;SDS011;51963;46.052;14.544;2024-01-15T05:57:56;37.60;;;14.10;;
56181;SDS011;51963;46.052;14.544;2024-01-15T06:00:21;27.98;;;13.48;;
56181;SDS011;51963;46.052;14.544;2024-01-15T06:02:47;34.15;;;15.32;;
56181;SDS011;51963;46.052;14.544;2024-01-15T06:05:12;32.88;;;14.25;;
56181;SDS011;51963;46.052;14.544;2024-01-15T06:07:38;29.98;;;13.57;;
56181;SDS011;51963;46.052;14.544;2024-01-15T06:10:04;29.25;;;15.00;;
56181;SDS011;51963;46.052;14.544;2024-01-15T06:12:30;34.10;;;15.88;;
56181;SDS011;51963;46.052;14.544;2024-01-15T06:14:57;31.73;;;13.55;;
56181;SDS011;51963;46.052;14.544;2024-01-15T06:17:23;28.63;;;12.88;;
56181;SDS011;51963;46.052;14.544;2024-01-15T06:19:48;33.20;;;13.98;;
56181;SDS011;51963;46.052;14.544;2024-01-15T06:22:14;35.42;;;14.20;;
56181;SDS011;51963;46.052;14.544;2024-01-15T06:24:40;32.97;;;13.98;;
56181;SDS011;51963;46.052;14.544;2024-01-15T06:27:06;36.53;;;15.55;;
56181;SDS011;51963;46.052;14.544;2024-01-15T06:29:32;29.88;;;13.73;;
56181;SDS011;51963;46.052;14.544;2024-01-15T06:31:57;29.23;;;14.60;;
56181;SDS011;51963;46.052;14.544;2024-01-15T06:34:23;28.65;;;14.20;;
56181;SDS011;51963;46.052;14.544;2024-01-15T06:36:49;30.50;;;13.65;;
56181;SDS011;51963;46.052;14.544;2024-01-15T06:39:15;33.88;;;14.02;;
56181;SDS011;51963;46.052;14.544;2024-01-15T06:41:40;33.35;;;13.52;;
56181;SDS011;51963;46.052;14.544;2024-01-15T06:46:36;26.67;;;11.70;;
56181;SDS011;51963;46.052;14.544;2024-01-15T06:49:01;28.30;;;13.73;;
56181;SDS011;51963;46.052;14.544;2024-01-15T06:51:27;29.88;;;13.07;;
56181;SDS011;51963;46.052;14.544;2024-01-15T06:53:54;32.30;;;13.63;;
56181;SDS011;51963;46.052;14.544;2024-01-15T06:56:20;26.45;;;13.30;;
56181;SDS011;51963;46.052;14.544;2024-01-15T06:58:45;32.55;;;13.98;;
56181;SDS011;51963;46.052;14.544;2024-01-15T07:01:11;32.15;;;14.35;;
56181;SDS011;51963;46.052;14.544;2024-01-15T07:03:37;31.55;;;14.43;;
56181;SDS011;51963;46.052;14.544;2024-01-15T07:06:03;36.08;;;14.60;;
56181;SDS011;51963;46.052;14.544;2024-01-15T07:08:29;39.72;;;15.23;;
56181;SDS011;51963;46.052;14.544;2024-01-15T07:10:55;36.92;;;15.95;;
56181;SDS011;51963;46.052;14.544;2024-01-15T07:13:21;41.60;;;17.27;;
56181;SDS011;51963;46.052;14.544;2024-01-15T07:15:46;35.72;;;16.63;;
56181;SDS011;51963;46.052;14.544;2024-01-15T07:18:12;34.05;;;15.40;;
56181;SDS011;51963;46.052;14.544;2024-01-15T07:20:38;39.00;;;16.27;;
56181;SDS011;51963;46.052;14.544;2024-01-15T07:23:04;35.42;;;16.35;;
56181;SDS011;51963;46.052;14.544;2024-01-15T07:25:29;31.00;;;14.95;;
56181;SDS011;51963;46.052;14.544;2024-01-15T07:27:55;39.70;;;16.90;;
56181;SDS011;51963;46.052;14.544;2024-01-15T07:30:21;36.20;;;15.98;;
56181;SDS011;51963;46.052;14.544;2024-01-15T07:32:47;34.83;;;14.95;;
56181;SDS011;51963;46.052;14.544;2024-01-15T07:35:14;38.33;;;16.80;;
56181;SDS011;51963;46.052;14.544;2024-01-15T07:37:40;39.10;;;16.33;;
56181;SDS011;51963;46.052;14.544;2024-01-15T07:40:06;33.22;;;15.43;;
56181;SDS011;51963;46.052;14.544;2024-01-15T07:42:34;32.85;;;15.18;;
56181;SDS011;51963;46.052;14.544;2024-01-15T07:45:03;34.08;;;16.02;;
56181;SDS011;51963;46.052;14.544;2024-01-15T07:47:30;34.38;;;15.45;;
56181;SDS011;51963;46.052;14.544;2024-01-15T07:49:55;35.03;;;16.48;;
56181;SDS011;51963;46.052;14.544;2024-01-15T07:52:21;36.58;;;17.30;;
56181;SDS011;51963;46.052;14.544;2024-01-15T07:54:47;39.33;;;16.70;;
56181;SDS011;51963;46.052;14.544;2024-01-15T07:57:13;40.08;;;17.20;;
56181;SDS011;51963;46.052;14.544;2024-01-15T07:59:38;38.45;;;15.43;;
56181;SDS011;51963;46.052;14.544;2024-01-15T08:02:05;34.55;;;15.35;;
56181;SDS011;51963;46.052;14.544;2024-01-15T08:04:31;37.15;;;15.63;;
56181;SDS011;51963;46.052;14.544;2024-01-15T08:06:57;35.88;;;15.63;;
56181;SDS011;51963;46.052;14.544;2024-01-15T08:09:22;37.42;;;16.35;;
56181;SDS011;51963;46.052;14.544;2024-01-15T08:11:48;31.83;;;15.18;;
56181;SDS011;51963;46.052;14.544;2024-01-15T08:16:42;32.28;;;15.38;;
56181;SDS011;51963;46.052;14.544;2024-01-15T08:19:09;34.10;;;16.23;;
56181;SDS011;51963;46.052;14.544;2024-01-15T08:21:35;40.17;;;16.70;;
56181;SDS011;51963;46.052;14.544;2024-01-15T08:24:02;33.65;;;15.27;;
56181;SDS011;51963;46.052;14.544;2024-01-15T08:26:28;33.22;;;15.35;;
56181;SDS011;51963;46.052;14.544;2024-01-15T08:28:54;34.65;;;16.08;;
56181;SDS011;51963;46.052;14.544;2024-01-15T08:31:20;34.80;;;17.92;;
56181;SDS011;51963;46.052;14.544;2024-01-15T08:33:46;35.28;;;18.10;;
56181;SDS011;51963;46.052;14.544;2024-01-15T08:36:12;39.13;;;19.10;;
56181;SDS011;51963;46.052;14.544;2024-01-15T08:38:38;37.10;;;18.05;;
56181;SDS011;51963;46.052;14.544;2024-01-15T08:41:04;39.05;;;19.73;;
56181;SDS011;51963;46.052;14.544;2024-01-15T08:43:30;38.92;;;21.80;;
56181;SDS011;51963;46.052;14.544;2024-01-15T08:48:24;40.67;;;18.77;;
56181;SDS011;51963;46.052;14.544;2024-01-15T08:50:53;40.00;;;18.30;;
56181;SDS011;51963;46.052;14.544;2024-01-15T08:53:19;35.17;;;16.88;;
56181;SDS011;51963;46.052;14.544;2024-01-15T08:55:45;33.72;;;16.98;;
56181;SDS011;51963;46.052;14.544;2024-01-15T08:58:11;35.83;;;16.95;;
56181;SDS011;51963;46.052;14.544;2024-01-15T09:00:37;36.78;;;16.70;;
56181;SDS011;51963;46.052;14.544;2024-01-15T09:03:03;32.65;;;16.50;;
56181;SDS011;51963;46.052;14.544;2024-01-15T09:05:29;34.58;;;16.45;;
56181;SDS011;51963;46.052;14.544;2024-01-15T09:07:54;31.13;;;16.70;;
56181;SDS011;51963;46.052;14.544;2024-01-15T09:10:20;30.35;;;16.05;;
56181;SDS011;51963;46.052;14.544;2024-01-15T09:12:46;31.95;;;16.20;;
56181;SDS011;51963;46.052;14.544;2024-01-15T09:15:12;33.50;;;15.57;;
56181;SDS011;51963;46.052;14.544;2024-01-15T09:17:38;32.80;;;16.23;;
56181;SDS011;51963;46.052;14.544;2024-01-15T09:20:03;30.45;;;15.43;;
56181;SDS011;51963;46.052;14.544;2024-01-15T09:22:31;31.25;;;15.48;;
56181;SDS011;51963;46.052;14.544;2024-01-15T09:24:57;35.45;;;17.95;;
56181;SDS011;51963;46.052;14.544;2024-01-15T09:27:22;42.35;;;19.63;;
56181;SDS011;51963;46.052;14.544;2024-01-15T09:29:48;44.47;;;19.90;;
56181;SDS011;51963;46.052;14.544;2024-01-15T09:32:13;36.92;;;19.02;;
56181;SDS011;51963;46.052;14.544;2024-01-15T09:34:41;34.83;;;18.52;;
56181;SDS011;51963;46.052;14.544;2024-01-15T09:37:06;38.13;;;18.88;;
56181;SDS011;51963;46.052;14.544;2024-01-15T09:39:32;37.60;;;18.52;;
56181;SDS011;51963;46.052;14.544;2024-01-15T09:41:58;36.08;;;17.50;;
56181;SDS011;51963;46.052;14.544;2024-01-15T09:44:24;41.63;;;19.00;;
56181;SDS011;51963;46.052;14.544;2024-01-15T09:46:51;38.10;;;18.67;;
56181;SDS011;51963;46.052;14.544;2024-01-15T09:49:18;38.15;;;17.95;;
56181;SDS011;51963;46.052;14.544;2024-01-15T09:51:45;32.97;;;16.52;;
56181;SDS011;51963;46.052;14.544;2024-01-15T09:54:10;35.80;;;17.60;;
56181;SDS011;51963;46.052;14.544;2024-01-15T09:56:38;33.45;;;15.40;;
56181;SDS011;51963;46.052;14.544;2024-01-15T09:59:04;32.78;;;16.63;;
56181;SDS011;51963;46.052;14.544;2024-01-15T10:01:32;34.80;;;16.92;;
56181;SDS011;51963;46.052;14.544;2024-01-15T10:03:57;33.78;;;16.27;;
56181;SDS011;51963;46.052;14.544;2024-01-15T10:06:24;33.83;;;16.38;;
56181;SDS011;51963;46.052;14.544;2024-01-15T10:08:53;36.63;;;16.38;;
56181;SDS011;51963;46.052;14.544;2024-01-15T10:11:19;29.23;;;15.90;;
56181;SDS011;51963;46.052;14.544;2024-01-15T10:13:46;30.35;;;15.90;;
56181;SDS011;51963;46.052;14.544;2024-01-15T10:16:12;29.83;;;15.63;;
56181;SDS011;51963;46.052;14.544;2024-01-15T10:18:38;34.25;;;16.73;;
56181;SDS011;51963;46.052;14.544;2024-01-15T10:21:07;29.95;;;15.63;;
56181;SDS011;51963;46.052;14.544;2024-01-15T10:23:33;34.00;;;17.13;;
56181;SDS011;51963;46.052;14.544;2024-01-15T10:26:01;36.30;;;16.42;;
56181;SDS011;51963;46.052;14.544;2024-01-15T10:28:27;31.55;;;16.48;;
56181;SDS011;51963;46.052;14.544;2024-01-15T10:30:56;29.13;;;15.97;;
56181;SDS011;51963;46.052;14.544;2024-01-15T10:33:24;35.47;;;16.92;;
56181;SDS011;51963;46.052;14.544;2024-01-15T10:35:54;32.35;;;16.15;;
56181;SDS011;51963;46.052;14.544;2024-01-15T10:38:23;31.60;;;16.63;;
56181;SDS011;51963;46.052;14.544;2024-01-15T10:40:53;33.97;;;16.45;;
56181;SDS011;51963;46.052;14.544;2024-01-15T10:43:20;31.50;;;16.25;;
56181;SDS011;51963;46.052;14.544;2024-01-15T10:45:47;45.10;;;19.17;;
56181;SDS011;51963;46.052;14.544;2024-01-15T10:48:15;58.35;;;22.95;;
56181;SDS011;51963;46.052;14.544;2024-01-15T10:50:41;49.67;;;20.13;;
56181;SDS011;51963;46.052;14.544;2024-01-15T10:53:08;38.13;;;16.75;;
56181;SDS011;51963;46.052;14.544;2024-01-15T10:55:34;33.95;;;16.38;;
56181;SDS011;51963;46.052;14.544;2024-01-15T10:58:01;31.38;;;16.33;;
56181;SDS011;51963;46.052;14.544;2024-01-15T11:00:29;34.70;;;15.00;;
56181;SDS011;51963;46.052;14.544;2024-01-15T11:02:55;27.83;;;14.23;;
56181;SDS011;51963;46.052;14.544;2024-01-15T11:05:21;29.05;;;13.98;;
56181;SDS011;51963;46.052;14.544;2024-01-15T11:07:48;34.63;;;15.10;;
56181;SDS011;51963;46.052;14.544;2024-01-15T11:15:56;32.55;;;14.75;;
56181;SDS011;51963;46.052;14.544;2024-01-15T11:18:23;29.50;;;15.50;;
56181;SDS011;51963;46.052;14.544;2024-01-15T11:21:31;34.40;;;16.25;;
56181;SDS011;51963;46.052;14.544;2024-01-15T11:23:48;36.60;;;16.85;;
56181;SDS011;51963;46.052;14.544;2024-01-15T11:31:29;32.28;;;17.08;;
56181;SDS011;51963;46.052;14.544;2024-01-15T11:34:04;37.00;;;16.83;;
56181;SDS011;51963;46.052;14.544;2024-01-15T11:41:59;32.97;;;15.55;;
56181;SDS011;51963;46.052;14.544;2024-01-15T11:44:26;33.75;;;16.13;;
56181;SDS011;51963;46.052;14.544;2024-01-15T11:49:48;35.08;;;16.65;;
56181;SDS011;51963;46.052;14.544;2024-01-15T11:52:25;38.97;;;17.60;;
56181;SDS011;51963;46.052;14.544;2024-01-15T11:54:55;33.08;;;16.38;;
56181;SDS011;51963;46.052;14.544;2024-01-15T11:57:50;35.08;;;17.25;;
56181;SDS011;51963;46.052;14.544;2024-01-15T12:00:16;34.25;;;17.15;;
56181;SDS011;51963;46.052;14.544;2024-01-15T12:02:43;33.50;;;15.60;;
56181;SDS011;51963;46.052;14.544;2024-01-15T12:05:14;31.90;;;14.98;;
56181;SDS011;51963;46.052;14.544;2024-01-15T12:07:41;31.10;;;15.70;;
56181;SDS011;51963;46.052;14.544;2024-01-15T12:10:18;30.27;;;15.75;;
56181;SDS011;51963;46.052;14.544;2024-01-15T12:12:58;36.13;;;16.90;;
56181;SDS011;51963;46.052;14.544;2024-01-15T12:15:25;37.13;;;18.40;;
56181;SDS011;51963;46.052;14.544;2024-01-15T12:17:52;40.57;;;20.77;;
56181;SDS011;51963;46.052;14.544;2024-01-15T12:20:21;40.03;;;20.60;;
56181;SDS011;51963;46.052;14.544;2024-01-15T12:22:47;42.03;;;19.75;;
56181;SDS011;51963;46.052;14.544;2024-01-15T12:25:13;42.58;;;21.75;;
56181;SDS011;51963;46.052;14.544;2024-01-15T12:27:38;43.20;;;20.73;;
56181;SDS011;51963;46.052;14.544;2024-01-15T12:30:05;47.65;;;23.67;;
56181;SDS011;51963;46.052;14.544;2024-01-15T12:32:32;45.90;;;22.30;;
56181;SDS011;51963;46.052;14.544;2024-01-15T12:35:00;45.10;;;22.55;;
56181;SDS011;51963;46.052;14.544;2024-01-15T12:37:25;42.38;;;21.77;;
56181;SDS011;51963;46.052;14.544;2024-01-15T12:39:51;44.05;;;21.20;;
56181;SDS011;51963;46.052;14.544;2024-01-15T12:42:17;43.28;;;22.48;;
56181;SDS011;51963;46.052;14.544;2024-01-15T12:44:44;38.33;;;20.83;;
56181;SDS011;51963;46.052;14.544;2024-01-15T12:47:10;43.63;;;20.75;;
56181;SDS011;51963;46.052;14.544;2024-01-15T12:49:36;40.17;;;20.38;;
56181;SDS011;51963;46.052;14.544;2024-01-15T12:52:03;42.85;;;20.35;;
56181;SDS011;51963;46.052;14.544;2024-01-15T12:54:29;40.05;;;20.08;;
56181;SDS011;51963;46.052;14.544;2024-01-15T12:56:55;46.72;;;21.45;;
56181;SDS011;51963;46.052;14.544;2024-01-15T12:59:20;36.00;;;19.60;;
56181;SDS011;51963;46.052;14.544;2024-01-15T13:01:46;37.85;;;19.98;;
56181;SDS011;51963;46.052;14.544;2024-01-15T13:04:20;39.88;;;20.48;;
56181;SDS011;51963;46.052;14.544;2024-01-15T13:06:47;42.50;;;21.42;;
56181;SDS011;51963;46.052;14.544;2024-01-15T13:09:14;40.40;;;19.80;;
56181;SDS011;51963;46.052;14.544;2024-01-15T13:11:40;38.67;;;19.48;;
56181;SDS011;51963;46.052;14.544;2024-01-15T13:14:06;37.92;;;19.30;;
56181;SDS011;51963;46.052;14.544;2024-01-15T13:16:32;40.08;;;18.48;;
56181;SDS011;51963;46.052;14.544;2024-01-15T13:18:57;42.35;;;20.55;;
56181;SDS011;51963;46.052;14.544;2024-01-15T13:21:24;39.33;;;20.90;;
56181;SDS011;51963;46.052;14.544;2024-01-15T13:23:50;41.88;;;20.67;;
56181;SDS011;51963;46.052;14.544;2024-01-15T13:26:15;45.28;;;22.33;;
56181;SDS011;51963;46.052;14.544;2024-01-15T13:28:43;48.50;;;22.03;;
56181;SDS011;51963;46.052;14.544;2024-01-15T13:31:09;42.05;;;21.58;;
56181;SDS011;51963;46.052;14.544;2024-01-15T13:33:35;40.20;;;20.30;;
56181;SDS011;51963;46.052;14.544;2024-01-15T13:36:01;45.90;;;22.48;;
56181;SDS011;51963;46.052;14.544;2024-01-15T13:38:27;57.95;;;26.90;;
56181;SDS011;51963;46.052;14.544;2024-01-15T13:40:56;60.75;;;27.25;;
56181;SDS011;51963;46.052;14.544;2024-01-15T13:43:22;50.00;;;24.88;;
56181;SDS011;51963;46.052;14.544;2024-01-15T13:45:48;44.75;;;20.95;;
56181;SDS011;51963;46.052;14.544;2024-01-15T13:48:14;40.30;;;20.35;;
56181;SDS011;51963;46.052;14.544;2024-01-15T13:50:40;42.78;;;19.38;;
56181;SDS011;51963;46.052;14.544;2024-01-15T13:53:06;39.40;;;19.77;;
56181;SDS011;51963;46.052;14.544;2024-01-15T13:55:31;39.17;;;20.17;;
56181;SDS011;51963;46.052;14.544;2024-01-15T13:57:57;38.03;;;20.50;;
56181;SDS011;51963;46.052;14.544;2024-01-15T14:00:23;42.88;;;21.00;;
56181;SDS011;51963;46.052;14.544;2024-01-15T14:02:48;38.88;;;20.30;;
56181;SDS011;51963;46.052;14.544;2024-01-15T14:05:14;41.80;;;20.23;;
56181;SDS011;51963;46.052;14.544;2024-01-15T14:07:40;43.08;;;20.80;;
56181;SDS011;51963;46.052;14.544;2024-01-15T14:10:06;49.17;;;21.48;;
56181;SDS011;51963;46.052;14.544;2024-01-15T14:12:33;43.10;;;22.00;;
56181;SDS011;51963;46.052;14.544;2024-01-15T14:14:59;42.97;;;20.98;;
56181;SDS011;51963;46.052;14.544;2024-01-15T14:17:27;40.78;;;19.85;;
56181;SDS011;51963;46.052;14.544;2024-01-15T14:19:53;42.90;;;21.73;;
56181;SDS011;51963;46.052;14.544;2024-01-15T14:22:19;45.10;;;21.23;;
56181;SDS011;51963;46.052;14.544;2024-01-15T14:24:44;44.08;;;21.50;;
56181;SDS011;51963;46.052;14.544;2024-01-15T14:27:10;42.83;;;22.70;;
56181;SDS011;51963;46.052;14.544;2024-01-15T14:29:36;45.47;;;22.00;;
56181;SDS011;51963;46.052;14.544;2024-01-15T14:32:02;43.03;;;21.52;;